| time (UTC) | temp F | wind direction | speed MPH | gust MPH | rain 1hr in | rain 24hr in | rain mn in | humidity % | barometer mb |
| 20260507111803 | 73 | 338 | 4.0 | 13.0 | 0.00 | 0.00 | 0.00 | 46 | 1017.0 |
| 20260507110903 | 73 | 321 | 4.0 | 9.0 | 0.00 | 0.00 | 0.00 | 46 | 1017.1 |
| 20260507110003 | 72 | 308 | 5.0 | 11.0 | 0.00 | 0.00 | 0.00 | 48 | 1017.4 |
| 20260507105404 | 72 | 304 | 6.0 | 13.0 | 0.00 | 0.00 | 0.00 | 48 | 1017.4 |
| 20260507104503 | 72 | 307 | 5.0 | 13.0 | 0.00 | 0.00 | 0.00 | 49 | 1017.5 |
| 20260507103603 | 72 | 314 | 5.0 | 11.0 | 0.00 | 0.00 | 0.00 | 48 | 1017.4 |
| 20260507102703 | 72 | 308 | 4.0 | 11.0 | 0.00 | 0.00 | 0.00 | 48 | 1017.5 |
| 20260507101803 | 72 | 302 | 5.0 | 13.0 | 0.00 | 0.00 | 0.00 | 47 | 1017.5 |
| 20260507100904 | 72 | 330 | 4.0 | 13.0 | 0.00 | 0.00 | 0.00 | 49 | 1017.5 |
| 20260507100003 | 70 | 312 | 5.0 | 10.0 | 0.00 | 0.00 | 0.00 | 49 | 1017.9 |
| 20260507095403 | 72 | 291 | 4.0 | 10.0 | 0.00 | 0.00 | 0.00 | 47 | 1017.9 |
| 20260507094503 | 71 | 358 | 4.0 | 13.0 | 0.00 | 0.00 | 0.00 | 47 | 1017.9 |
| 20260507093603 | 71 | 311 | 3.0 | 11.0 | 0.00 | 0.00 | 0.00 | 51 | 1018.2 |
| 20260507092703 | 70 | 308 | 5.0 | 10.0 | 0.00 | 0.00 | 0.00 | 50 | 1018.2 |
| 20260507091803 | 71 | 304 | 4.0 | 10.0 | 0.00 | 0.00 | 0.00 | 52 | 1018.3 |
| 20260507090903 | 70 | 318 | 6.0 | 11.0 | 0.00 | 0.00 | 0.00 | 53 | 1018.4 |
| 20260507090004 | 70 | 312 | 2.0 | 7.0 | 0.00 | 0.00 | 0.00 | 52 | 1018.3 |
| 20260507085403 | 69 | 276 | 3.0 | 9.0 | 0.00 | 0.00 | 0.00 | 51 | 1018.4 |
| 20260507084524 | 70 | 291 | 4.0 | 9.0 | 0.00 | 0.00 | 0.00 | 52 | 1018.7 |
| 20260507083603 | 68 | 291 | 5.0 | 10.0 | 0.00 | 0.00 | 0.00 | 53 | 1018.5 |
| 20260507082724 | 69 | 338 | 4.0 | 9.0 | 0.00 | 0.00 | 0.00 | 53 | 1018.7 |
| 20260507081824 | 69 | 316 | 5.0 | 10.0 | 0.00 | 0.00 | 0.00 | 54 | 1018.6 |
| 20260507080903 | 68 | 313 | 4.0 | 9.0 | 0.00 | 0.00 | 0.00 | 55 | 1018.9 |
| 20260507080005 | 68 | 296 | 4.0 | 9.0 | 0.00 | 0.00 | 0.00 | 55 | 1018.7 |
| 20260507075403 | 68 | 312 | 5.0 | 9.0 | 0.00 | 0.00 | 0.00 | 56 | 1018.6 |
| 20260507074504 | 68 | 331 | 4.0 | 8.0 | 0.00 | 0.00 | 0.00 | 59 | 1018.8 |
| 20260507073604 | 68 | 273 | 4.0 | 8.0 | 0.00 | 0.00 | 0.00 | 59 | 1018.8 |
| 20260507072704 | 67 | 300 | 4.0 | 9.0 | 0.00 | 0.00 | 0.00 | 60 | 1018.8 |
| 20260507071824 | 67 | 310 | 4.0 | 9.0 | 0.00 | 0.00 | 0.00 | 59 | 1018.7 |
| 20260507070903 | 67 | 339 | 3.0 | 8.0 | 0.00 | 0.00 | 0.00 | 62 | 1018.6 |
| 20260507070008 | 67 | 302 | 3.0 | 8.0 | 0.00 | 0.00 | 0.00 | 62 | 1018.5 |
| 20260507065403 | 66 | 317 | 3.0 | 8.0 | 0.00 | 0.00 | 0.00 | 63 | 1018.4 |
| 20260507064504 | 65 | 304 | 4.0 | 8.0 | 0.00 | 0.00 | 0.00 | 65 | 1018.7 |
| 20260507063603 | 65 | 338 | 4.0 | 10.0 | 0.00 | 0.00 | 0.00 | 66 | 1018.5 |
| 20260507062703 | 64 | 322 | 5.0 | 10.0 | 0.00 | 0.00 | 0.00 | 67 | 1018.7 |
| 20260507061803 | 64 | 318 | 5.0 | 11.0 | 0.00 | 0.00 | 0.00 | 68 | 1018.6 |
| 20260507060903 | 64 | 302 | 4.0 | 10.0 | 0.00 | 0.00 | 0.00 | 67 | 1018.7 |
| 20260507060005 | 62 | 328 | 4.0 | 9.0 | 0.00 | 0.00 | 0.00 | 68 | 1018.9 |
| 20260507055404 | 63 | 318 | 5.0 | 9.0 | 0.00 | 0.00 | 0.00 | 69 | 1019.1 |
| 20260507054503 | 63 | 314 | 4.0 | 9.0 | 0.00 | 0.00 | 0.00 | 70 | 1019.0 |
| 20260507053624 | 61 | 310 | 5.0 | 10.0 | 0.00 | 0.00 | 0.00 | 71 | 1019.0 |
| 20260507052703 | 61 | 305 | 4.0 | 9.0 | 0.00 | 0.00 | 0.00 | 72 | 1018.8 |
| 20260507051803 | 60 | 298 | 4.0 | 8.0 | 0.00 | 0.00 | 0.00 | 76 | 1019.0 |
| 20260507050903 | 59 | 302 | 4.0 | 9.0 | 0.00 | 0.00 | 0.00 | 77 | 1019.0 |
| 20260507050004 | 58 | 305 | 5.0 | 9.0 | 0.00 | 0.00 | 0.00 | 77 | 1019.1 |
| 20260507045425 | 58 | 311 | 5.0 | 9.0 | 0.00 | 0.00 | 0.00 | 78 | 1018.9 |
| 20260507044503 | 58 | 306 | 5.0 | 9.0 | 0.00 | 0.00 | 0.00 | 78 | 1019.0 |
| 20260507043603 | 57 | 313 | 4.0 | 7.0 | 0.00 | 0.00 | 0.00 | 79 | 1019.0 |
| 20260507042703 | 57 | 308 | 4.0 | 9.0 | 0.00 | 0.00 | 0.00 | 80 | 1019.0 |
| 20260507041803 | 56 | 310 | 4.0 | 7.0 | 0.00 | 0.00 | 0.00 | 80 | 1019.1 |
| 20260507040903 | 56 | 322 | 2.0 | 6.0 | 0.00 | 0.00 | 0.00 | 80 | 1018.9 |
| 20260507040003 | 56 | 312 | 2.0 | 4.0 | 0.00 | 0.00 | 0.00 | 81 | 1018.9 |
| 20260507035405 | 55 | 315 | 1.0 | 3.0 | 0.00 | 0.00 | 0.00 | 81 | 1018.9 |
| 20260507034524 | 55 | 314 | 2.0 | 4.0 | 0.00 | 0.00 | 0.00 | 82 | 1018.9 |
| 20260507033603 | 54 | 313 | 3.0 | 6.0 | 0.00 | 0.00 | 0.00 | 83 | 1019.1 |
| 20260507032703 | 54 | 304 | 4.0 | 6.0 | 0.00 | 0.00 | 0.00 | 83 | 1018.6 |
| 20260507031803 | 54 | 320 | 2.0 | 6.0 | 0.00 | 0.00 | 0.00 | 83 | 1018.5 |
| 20260507030903 | 54 | 341 | 2.0 | 8.0 | 0.00 | 0.00 | 0.00 | 83 | 1018.5 |
| 20260507030003 | 54 | 349 | 3.0 | 8.0 | 0.00 | 0.00 | 0.00 | 83 | 1018.3 |
| 20260507025403 | 54 | 345 | 2.0 | 7.0 | 0.00 | 0.00 | 0.00 | 84 | 1018.2 |
| 20260507024524 | 54 | 347 | 3.0 | 7.0 | 0.00 | 0.00 | 0.00 | 84 | 1018.3 |
| 20260507023603 | 54 | 328 | 2.0 | 6.0 | 0.00 | 0.00 | 0.00 | 84 | 1018.0 |
| 20260507022704 | 54 | 332 | 2.0 | 4.0 | 0.00 | 0.00 | 0.00 | 85 | 1018.1 |
| 20260507021803 | 54 | 324 | 2.0 | 6.0 | 0.00 | 0.00 | 0.00 | 85 | 1018.0 |
| 20260507020925 | 54 | 310 | 4.0 | 8.0 | 0.00 | 0.00 | 0.00 | 85 | 1017.7 |
| 20260507020004 | 53 | 306 | 5.0 | 8.0 | 0.00 | 0.00 | 0.00 | 86 | 1017.7 |
| 20260507015403 | 53 | 308 | 4.0 | 7.0 | 0.00 | 0.00 | 0.00 | 86 | 1017.7 |
| 20260507014503 | 54 | 308 | 4.0 | 7.0 | 0.00 | 0.00 | 0.00 | 86 | 1017.6 |
| 20260507013604 | 54 | 309 | 4.0 | 7.0 | 0.00 | 0.00 | 0.00 | 85 | 1017.6 |
| 20260507012704 | 54 | 307 | 4.0 | 7.0 | 0.00 | 0.00 | 0.00 | 84 | 1017.5 |
| 20260507011824 | 54 | 311 | 3.0 | 6.0 | 0.00 | 0.00 | 0.00 | 85 | 1017.4 |
| 20260507010003 | 54 | 310 | 5.0 | 7.0 | 0.00 | 0.00 | 0.00 | 84 | 1017.3 |
| 20260507005403 | 54 | 304 | 5.0 | 7.0 | 0.00 | 0.00 | 0.00 | 84 | 1017.6 |
| 20260507004504 | 55 | 310 | 4.0 | 7.0 | 0.00 | 0.00 | 0.00 | 85 | 1017.5 |
| 20260507003603 | 55 | 306 | 3.0 | 6.0 | 0.00 | 0.00 | 0.00 | 85 | 1017.2 |
| 20260507002704 | 55 | 311 | 4.0 | 7.0 | 0.00 | 0.00 | 0.00 | 84 | 1017.3 |
| 20260507001803 | 55 | 308 | 5.0 | 7.0 | 0.00 | 0.00 | 0.00 | 84 | 1017.2 |
| 20260507000903 | 55 | 310 | 5.0 | 7.0 | 0.00 | 0.00 | 0.00 | 84 | 1017.1 |
| 20260507000023 | 55 | 310 | 4.0 | 6.0 | 0.00 | 0.00 | 0.00 | 84 | 1017.0 |
| 20260506235402 | 56 | 312 | 2.0 | 4.0 | 0.00 | 0.00 | 0.00 | 83 | 1017.1 |
| 20260506234502 | 56 | 309 | 1.0 | 3.0 | 0.00 | 0.00 | 0.00 | 83 | 1017.4 |
| 20260506233602 | 56 | 306 | 3.0 | 6.0 | 0.00 | 0.00 | 0.00 | 83 | 1017.0 |
| 20260506232702 | 56 | 311 | 4.0 | 7.0 | 0.00 | 0.00 | 0.00 | 83 | 1017.0 |
| 20260506231802 | 56 | 309 | 4.0 | 7.0 | 0.00 | 0.00 | 0.00 | 83 | 1017.0 |
| 20260506230902 | 56 | 308 | 5.0 | 7.0 | 0.00 | 0.00 | 0.00 | 83 | 1017.1 |
| 20260506230002 | 56 | 308 | 5.0 | 8.0 | 0.00 | 0.00 | 0.00 | 82 | 1017.3 |
| 20260506225402 | 56 | 305 | 4.0 | 7.0 | 0.00 | 0.00 | 0.00 | 82 | 1017.3 |
| 20260506224502 | 56 | 311 | 5.0 | 8.0 | 0.00 | 0.00 | 0.00 | 82 | 1017.4 |
| 20260506223602 | 56 | 312 | 5.0 | 8.0 | 0.00 | 0.00 | 0.00 | 82 | 1017.1 |
| 20260506222702 | 57 | 309 | 5.0 | 7.0 | 0.00 | 0.00 | 0.00 | 82 | 1017.3 |
| 20260506221802 | 56 | 312 | 5.0 | 7.0 | 0.00 | 0.00 | 0.00 | 82 | 1017.5 |
| 20260506220923 | 57 | 311 | 3.0 | 6.0 | 0.00 | 0.00 | 0.00 | 82 | 1017.3 |
| 20260506220023 | 57 | 307 | 4.0 | 7.0 | 0.00 | 0.00 | 0.00 | 81 | 1017.6 |
| 20260506215402 | 57 | 309 | 4.0 | 6.0 | 0.00 | 0.00 | 0.00 | 82 | 1017.4 |
| 20260506214502 | 57 | 307 | 5.0 | 7.0 | 0.00 | 0.00 | 0.00 | 82 | 1017.4 |
| 20260506213602 | 57 | 307 | 5.0 | 8.0 | 0.00 | 0.00 | 0.00 | 82 | 1017.5 |
| 20260506212702 | 57 | 302 | 7.0 | 10.0 | 0.00 | 0.00 | 0.00 | 81 | 1017.6 |
| 20260506211802 | 57 | 301 | 6.0 | 9.0 | 0.00 | 0.00 | 0.00 | 81 | 1017.6 |
| 20260506210903 | 57 | 310 | 6.0 | 9.0 | 0.00 | 0.00 | 0.00 | 80 | 1017.6 |
| 20260506210023 | 58 | 309 | 6.0 | 9.0 | 0.00 | 0.00 | 0.00 | 80 | 1017.7 |
| 20260506205403 | 58 | 308 | 6.0 | 9.0 | 0.00 | 0.00 | 0.00 | 79 | 1017.6 |
| 20260506204502 | 58 | 307 | 6.0 | 9.0 | 0.00 | 0.00 | 0.00 | 78 | 1017.5 |
| 20260506203603 | 58 | 309 | 6.0 | 10.0 | 0.00 | 0.00 | 0.00 | 77 | 1017.5 |
| 20260506202702 | 59 | 314 | 7.0 | 13.0 | 0.00 | 0.00 | 0.00 | 76 | 1017.3 |
| 20260506201802 | 59 | 311 | 7.0 | 13.0 | 0.00 | 0.00 | 0.00 | 76 | 1017.6 |
| 20260506200902 | 59 | 315 | 4.0 | 7.0 | 0.00 | 0.00 | 0.00 | 75 | 1017.2 |
| 20260506200002 | 60 | 305 | 5.0 | 8.0 | 0.00 | 0.00 | 0.00 | 74 | 1017.1 |
| 20260506195402 | 60 | 300 | 5.0 | 8.0 | 0.00 | 0.00 | 0.00 | 73 | 1017.0 |
| 20260506194502 | 61 | 307 | 5.0 | 8.0 | 0.00 | 0.00 | 0.00 | 73 | 1017.1 |
| 20260506193602 | 61 | 313 | 6.0 | 9.0 | 0.00 | 0.00 | 0.00 | 73 | 1017.1 |
| 20260506192703 | 61 | 312 | 5.0 | 7.0 | 0.00 | 0.00 | 0.00 | 72 | 1016.9 |
| 20260506191802 | 62 | 308 | 5.0 | 10.0 | 0.00 | 0.00 | 0.00 | 71 | 1016.9 |
| 20260506190904 | 62 | 308 | 5.0 | 9.0 | 0.00 | 0.00 | 0.00 | 70 | 1017.0 |
| 20260506190003 | 62 | 309 | 4.0 | 8.0 | 0.00 | 0.00 | 0.00 | 71 | 1016.8 |
| 20260506185423 | 62 | 312 | 4.0 | 7.0 | 0.00 | 0.00 | 0.00 | 71 | 1016.9 |
| 20260506184502 | 62 | 311 | 6.0 | 9.0 | 0.00 | 0.00 | 0.00 | 71 | 1016.9 |
| 20260506183603 | 63 | 310 | 6.0 | 9.0 | 0.00 | 0.00 | 0.00 | 70 | 1016.7 |
| 20260506182724 | 64 | 314 | 5.0 | 9.0 | 0.00 | 0.00 | 0.00 | 68 | 1016.6 |
| 20260506181803 | 64 | 308 | 6.0 | 9.0 | 0.00 | 0.00 | 0.00 | 67 | 1016.4 |
| 20260506180903 | 65 | 312 | 4.0 | 7.0 | 0.00 | 0.00 | 0.00 | 66 | 1016.5 |
| 20260506180003 | 65 | 319 | 4.0 | 7.0 | 0.00 | 0.00 | 0.00 | 66 | 1016.4 |
| 20260506175402 | 65 | 314 | 4.0 | 7.0 | 0.00 | 0.00 | 0.00 | 65 | 1016.5 |
| 20260506174502 | 65 | 310 | 5.0 | 7.0 | 0.00 | 0.00 | 0.00 | 63 | 1016.5 |
| 20260506173602 | 66 | 315 | 4.0 | 8.0 | 0.00 | 0.00 | 0.00 | 60 | 1016.1 |
| 20260506172702 | 67 | 311 | 4.0 | 8.0 | 0.00 | 0.00 | 0.00 | 59 | 1016.0 |
| 20260506171802 | 67 | 310 | 5.0 | 8.0 | 0.00 | 0.00 | 0.00 | 59 | 1016.0 |
| 20260506170903 | 67 | 308 | 5.0 | 10.0 | 0.00 | 0.00 | 0.00 | 58 | 1015.6 |
| 20260506170004 | 67 | 313 | 4.0 | 10.0 | 0.00 | 0.00 | 0.00 | 58 | 1015.7 |
| 20260506165403 | 68 | 325 | 3.0 | 7.0 | 0.00 | 0.00 | 0.00 | 59 | 1015.8 |
| 20260506164505 | 68 | 329 | 3.0 | 8.0 | 0.00 | 0.00 | 0.00 | 58 | 1015.6 |
| 20260506163603 | 68 | 316 | 5.0 | 10.0 | 0.00 | 0.00 | 0.00 | 58 | 1015.4 |
| 20260506162723 | 68 | 307 | 4.0 | 10.0 | 0.00 | 0.00 | 0.00 | 59 | 1015.4 |
| 20260506161802 | 69 | 312 | 5.0 | 8.0 | 0.00 | 0.00 | 0.00 | 58 | 1015.3 |
| 20260506160903 | 69 | 314 | 6.0 | 9.0 | 0.00 | 0.00 | 0.00 | 56 | 1015.1 |
| 20260506160003 | 69 | 305 | 5.0 | 9.0 | 0.00 | 0.00 | 0.00 | 56 | 1015.0 |
| 20260506155403 | 69 | 305 | 6.0 | 9.0 | 0.00 | 0.00 | 0.00 | 55 | 1015.1 |
| 20260506154503 | 70 | 305 | 6.0 | 9.0 | 0.00 | 0.00 | 0.00 | 55 | 1014.8 |
| 20260506153603 | 70 | 306 | 5.0 | 8.0 | 0.00 | 0.00 | 0.00 | 53 | 1015.0 |
| 20260506152703 | 71 | 313 | 4.0 | 8.0 | 0.00 | 0.00 | 0.00 | 52 | 1014.7 |
| 20260506151803 | 71 | 312 | 5.0 | 8.0 | 0.00 | 0.00 | 0.00 | 53 | 1014.8 |
| 20260506150903 | 71 | 306 | 5.0 | 8.0 | 0.00 | 0.00 | 0.00 | 52 | 1014.9 |
| 20260506150003 | 71 | 313 | 6.0 | 9.0 | 0.00 | 0.00 | 0.00 | 52 | 1014.8 |
| 20260506145403 | 71 | 313 | 5.0 | 9.0 | 0.00 | 0.00 | 0.00 | 52 | 1014.8 |
| 20260506144503 | 72 | 318 | 3.0 | 7.0 | 0.00 | 0.00 | 0.00 | 51 | 1014.8 |
| 20260506143605 | 72 | 329 | 2.0 | 7.0 | 0.00 | 0.00 | 0.00 | 50 | 1014.9 |
| 20260506142724 | 72 | 337 | 3.0 | 9.0 | 0.00 | 0.00 | 0.00 | 51 | 1014.9 |
| 20260506141803 | 71 | 326 | 3.0 | 9.0 | 0.00 | 0.00 | 0.00 | 51 | 1014.7 |
| 20260506140903 | 71 | 322 | 4.0 | 10.0 | 0.00 | 0.00 | 0.00 | 51 | 1014.9 |
| 20260506140002 | 72 | 319 | 4.0 | 9.0 | 0.00 | 0.00 | 0.00 | 50 | 1015.0 |
| 20260506135403 | 72 | 325 | 5.0 | 9.0 | 0.00 | 0.00 | 0.00 | 50 | 1014.9 |
| 20260506134524 | 71 | 310 | 6.0 | 10.0 | 0.00 | 0.00 | 0.00 | 50 | 1014.9 |
| 20260506133603 | 72 | 280 | 4.0 | 9.0 | 0.00 | 0.00 | 0.00 | 50 | 1014.8 |
| 20260506132702 | 72 | 288 | 3.0 | 7.0 | 0.00 | 0.00 | 0.00 | 49 | 1014.9 |
| 20260506131803 | 72 | 297 | 3.0 | 8.0 | 0.00 | 0.00 | 0.00 | 49 | 1015.1 |
| 20260506130925 | 72 | 281 | 3.0 | 7.0 | 0.00 | 0.00 | 0.00 | 48 | 1015.0 |
| 20260506130005 | 71 | 298 | 5.0 | 9.0 | 0.00 | 0.00 | 0.00 | 48 | 1015.3 |
| 20260506125403 | 71 | 305 | 5.0 | 11.0 | 0.00 | 0.00 | 0.00 | 49 | 1015.2 |
| 20260506124503 | 71 | 315 | 5.0 | 11.0 | 0.00 | 0.00 | 0.00 | 49 | 1015.2 |
| 20260506123624 | 70 | 351 | 5.0 | 14.0 | 0.00 | 0.00 | 0.00 | 50 | 1015.4 |
| 20260506122703 | 70 | 296 | 6.0 | 11.0 | 0.00 | 0.00 | 0.00 | 50 | 1015.7 |
| 20260506121803 | 71 | 289 | 4.0 | 9.0 | 0.00 | 0.00 | 0.00 | 50 | 1015.7 |
| 20260506120903 | 71 | 333 | 2.0 | 9.0 | 0.00 | 0.00 | 0.00 | 48 | 1015.7 |
| 20260506120004 | 70 | 307 | 4.0 | 9.0 | 0.00 | 0.00 | 0.00 | 50 | 1016.2 |
| 20260506115424 | 70 | 276 | 5.0 | 11.0 | 0.00 | 0.00 | 0.00 | 50 | 1015.8 |
| 20260506114525 | 71 | 296 | 3.0 | 11.0 | 0.00 | 0.00 | 0.00 | 50 | 1015.7 |
| 20260506113603 | 69 | 309 | 7.0 | 16.0 | 0.00 | 0.00 | 0.00 | 50 | 1016.3 |
| 20260506112703 | 70 | 300 | 5.0 | 16.0 | 0.00 | 0.00 | 0.00 | 50 | 1016.3 |